Hlavní strana
METAR-TAF:

METAR-TAF

Letiště :

Turku, Finsko

zeměpisná šířka: 60-31N, zeměpisná délka: 022-16E, výška: 49 m

Aktuální stav počasí

Zpráva byla vytvořena před 11 minutami, v 20:20 UTC
Západojihozápadní vítr 3 kt
Teplota 3°C
Vlhkost vzduchu 93%
Tlak 999 hPa
Viditelnost 10 km a více
Žádná oblačnost pod 1500 m, nevyskytují se cumulonimby.

METAR: EFTU 232020Z AUTO 24003KT CAVOK 03/02 Q0999

Čas: 23:31 (20:31 UTC)

Předpověď počasí

Zpráva byla vytvořena před 3 hodinami a 0 minutami, v 17:31 UTC
Předpověď platná od 23 v 18 UTC do 24 v 18 UTC
Západní vítr 6 kt
Viditelnost 10 km a více
Žádná oblačnost pod 1500 m, nevyskytují se cumulonimby.
Změna
od 24 v 09 UTC do 24 v 11 UTC
Severoseverozápadní vítr 10 kt
Dočasný
od 24 v 09 UTC do 24 v 12 UTC
Polojasno ve výšce 3000 ft, Cumulonimbus.

TAF: EFTU 231731Z 2318/2418 27006KT CAVOK BECMG 2409/2411 33010KT TEMPO 2409/2412 SCT030CB

Stav a předpovědi počasí z více než 4 000 letišť (zprávy METAR a TAF).

Červené a žluté tečky na mapě představují dostupné meteorologické stanice.

Když kurzor umístíte na tečku, zobrazí se název stanice.

Pak kliknutím zobrazíte stav a předpověď počasí.

Chcete-li změnit mapu, kliknutím na zelené tlačítko se znaménkem +mapu přiblížíte, kliknutím na zelené tlačítko se znaménkem – mapu oddálíte a kliknutím na zelené šipky přejdete na sousední mapy.


METAR-TAF: